Time;durP1;ratioP1;P1;durP2;ratioP2;P2;SDS_P1;SDS_P2;PMS_P1;PMS_P2;Temp;Humidity;BMP_temperature;BMP_pressure;BME280_temperature;BME280_humidity;BME280_pressure;Samples;Min_cycle;Max_cycle;Signal;HPM_P1;HPM_P2
2022/07/21 00:01:29;;;;;;;9.05;8.35;;;19.00;92.40;;;;;;5005000;28;20436;-74
2022/07/21 00:03:56;;;;;;;8.50;7.90;;;19.00;92.20;;;;;;5006124;28;20490;-75
2022/07/21 00:06:23;;;;;;;10.70;9.83;;;19.00;92.20;;;;;;5006180;28;20531;-74
2022/07/21 00:08:50;;;;;;;9.50;8.80;;;19.00;92.60;;;;;;5005758;28;20889;-74
2022/07/21 00:11:17;;;;;;;10.60;9.80;;;19.00;93.10;;;;;;5003616;28;20897;-74
2022/07/21 00:13:44;;;;;;;9.57;8.88;;;19.00;93.70;;;;;;5005936;28;20460;-71
2022/07/21 00:16:13;;;;;;;9.98;9.18;;;19.00;93.70;;;;;;5005753;28;20490;-74
2022/07/21 00:18:40;;;;;;;10.18;9.48;;;18.90;93.60;;;;;;5006259;28;20497;-75
2022/07/21 00:21:07;;;;;;;10.43;9.63;;;18.90;93.80;;;;;;4993912;28;20517;-74
2022/07/21 00:23:34;;;;;;;10.32;9.52;;;18.90;94.10;;;;;;4986458;28;20451;-74
2022/07/21 00:26:01;;;;;;;7.90;7.30;;;19.00;94.50;;;;;;4984849;28;20510;-73
2022/07/21 00:28:28;;;;;;;7.20;6.70;;;19.00;94.40;;;;;;4986181;28;20446;-74
2022/07/21 00:30:55;;;;;;;6.80;6.30;;;18.90;94.10;;;;;;4985199;28;20453;-74
2022/07/21 00:33:23;;;;;;;7.03;6.55;;;18.80;93.90;;;;;;4986497;28;20425;-74
2022/07/21 00:35:50;;;;;;;7.40;6.90;;;18.80;93.90;;;;;;4986252;28;20516;-75
2022/07/21 00:38:17;;;;;;;8.00;7.40;;;18.70;93.70;;;;;;4988840;28;20464;-75
2022/07/21 00:40:44;;;;;;;7.97;7.38;;;18.70;93.80;;;;;;4987235;28;20450;-74
2022/07/21 00:43:11;;;;;;;9.80;9.00;;;18.80;94.20;;;;;;4989945;28;20848;-74
2022/07/21 00:45:38;;;;;;;8.45;7.75;;;18.80;94.70;;;;;;4990205;28;20497;-75
2022/07/21 00:48:06;;;;;;;7.00;6.50;;;18.80;94.50;;;;;;4990124;28;20430;-75
2022/07/21 00:50:34;;;;;;;6.88;6.38;;;18.70;94.00;;;;;;4988531;28;20469;-73
2022/07/21 00:53:02;;;;;;;8.85;8.05;;;18.70;93.70;;;;;;4990363;28;20434;-74
2022/07/21 00:55:29;;;;;;;8.60;7.90;;;18.60;93.00;;;;;;4988359;28;20421;-75
2022/07/21 00:57:56;;;;;;;10.18;9.40;;;18.60;93.30;;;;;;4989884;28;20468;-74
2022/07/21 01:00:26;;;;;;;11.68;10.68;;;18.60;93.60;;;;;;4988480;28;20418;-72
2022/07/21 01:02:53;;;;;;;13.80;12.70;;;18.70;93.80;;;;;;4989984;28;20500;-72
2022/07/21 01:05:21;;;;;;;13.70;12.60;;;18.70;94.40;;;;;;4989730;28;20500;-75
2022/07/21 01:07:53;;;;;;;13.57;12.50;;;18.70;94.50;;;;;;4990138;28;20418;-75
2022/07/21 01:10:22;;;;;;;13.50;12.38;;;18.70;94.70;;;;;;4986954;28;20528;-74
2022/07/21 01:12:49;;;;;;;14.18;12.98;;;18.70;94.90;;;;;;5019797;23;20468;-77
2022/07/21 01:15:17;;;;;;;12.68;11.73;;;18.70;95.00;;;;;;5028607;28;20475;-78
2022/07/21 01:17:45;;;;;;;12.95;11.95;;;18.80;94.60;;;;;;5039318;28;20451;-78
2022/07/21 01:20:15;;;;;;;14.30;13.10;;;18.70;94.60;;;;;;5036457;28;20428;-81
2022/07/21 01:22:45;;;;;;;14.83;13.63;;;18.70;94.40;;;;;;5015619;28;20537;-77
2022/07/21 01:25:13;;;;;;;15.63;14.32;;;18.70;94.80;;;;;;5013288;28;20500;-80
2022/07/21 01:27:40;;;;;;;16.23;14.77;;;18.60;94.90;;;;;;5012987;28;20891;-77
2022/07/21 01:30:09;;;;;;;14.70;13.40;;;18.60;95.00;;;;;;5012472;28;20528;-77
2022/07/21 01:32:37;;;;;;;13.70;12.60;;;18.50;94.80;;;;;;5011700;28;20425;-78
2022/07/21 01:35:06;;;;;;;15.77;14.48;;;18.40;95.10;;;;;;5011895;28;20522;-78
2022/07/21 01:37:35;;;;;;;21.90;19.83;;;18.50;95.20;;;;;;5012106;28;20511;-77
2022/07/21 01:42:48;;;;;;;15.50;14.40;;;18.50;95.60;;;;;;5012173;28;20420;-76
2022/07/21 01:45:14;;;;;;;19.10;17.50;;;18.40;95.50;;;;;;5011037;28;20507;-77
2022/07/21 01:47:41;;;;;;;16.25;14.95;;;18.40;95.80;;;;;;5012549;28;20421;-77
2022/07/21 01:50:09;;;;;;;18.60;17.20;;;18.50;95.90;;;;;;5010533;28;20516;-77
2022/07/21 01:52:35;;;;;;;18.75;17.25;;;18.50;95.90;;;;;;5012365;28;20475;-77
2022/07/21 01:55:04;;;;;;;16.95;15.55;;;18.50;96.00;;;;;;5011446;28;20887;-76
2022/07/21 01:57:31;;;;;;;19.17;17.48;;;18.40;96.00;;;;;;5012949;28;20471;-78
2022/07/21 01:59:59;;;;;;;16.98;15.68;;;18.50;96.10;;;;;;5012296;28;20476;-78
2022/07/21 02:02:26;;;;;;;19.23;17.63;;;18.40;95.90;;;;;;5012870;28;20441;-79
2022/07/21 02:04:52;;;;;;;20.10;18.50;;;18.40;96.00;;;;;;5012687;28;20466;-78
2022/07/21 02:07:19;;;;;;;18.80;17.30;;;18.40;96.10;;;;;;5013136;28;20903;-77
2022/07/21 02:09:46;;;;;;;19.90;18.20;;;18.50;96.20;;;;;;5012095;28;20528;-75
2022/07/21 02:12:15;;;;;;;17.98;16.48;;;18.50;96.30;;;;;;5011605;28;20527;-77
2022/07/21 02:14:41;;;;;;;18.40;16.90;;;18.50;96.40;;;;;;5012334;28;20463;-77
2022/07/21 02:17:08;;;;;;;17.73;16.23;;;18.60;96.50;;;;;;5012445;28;20890;-77
2022/07/21 02:19:35;;;;;;;20.13;18.38;;;18.50;96.40;;;;;;5012722;28;20511;-76
2022/07/21 02:22:02;;;;;;;19.55;18.05;;;18.50;96.40;;;;;;5012674;28;20522;-76
2022/07/21 02:24:29;;;;;;;22.70;20.90;;;18.50;96.40;;;;;;5013390;28;20508;-76
2022/07/21 02:26:56;;;;;;;20.98;19.13;;;18.50;96.60;;;;;;5011314;28;20524;-79
2022/07/21 02:29:25;;;;;;;22.27;20.30;;;18.60;96.50;;;;;;5011012;28;20519;-79
2022/07/21 02:31:52;;;;;;;21.40;19.70;;;18.50;96.40;;;;;;5009817;28;20863;-76
2022/07/21 02:34:18;;;;;;;23.85;21.75;;;18.50;96.20;;;;;;5010961;28;20417;-76
2022/07/21 02:36:45;;;;;;;22.90;21.20;;;18.50;96.20;;;;;;5010186;28;20503;-77
2022/07/21 02:39:12;;;;;;;22.20;20.50;;;18.40;96.10;;;;;;5011268;28;20954;-77
2022/07/21 02:41:39;;;;;;;24.30;22.30;;;18.30;95.90;;;;;;5009906;28;20421;-75
2022/07/21 02:44:06;;;;;;;25.08;22.98;;;18.30;96.10;;;;;;5011184;28;20416;-76
2022/07/21 02:46:34;;;;;;;24.67;22.67;;;18.40;96.10;;;;;;5011329;28;20431;-76
2022/07/21 02:49:00;;;;;;;26.75;24.65;;;18.30;96.10;;;;;;5011608;28;20433;-77
2022/07/21 02:51:27;;;;;;;27.42;25.02;;;18.40;96.30;;;;;;5010603;28;20436;-79
2022/07/21 02:53:54;;;;;;;29.05;26.45;;;18.40;96.40;;;;;;5010705;28;20421;-78
2022/07/21 02:56:21;;;;;;;28.10;25.90;;;18.40;96.50;;;;;;5009123;28;20428;-78
2022/07/21 02:58:48;;;;;;;27.17;24.87;;;18.40;96.60;;;;;;5009696;28;20516;-79
2022/07/21 03:01:15;;;;;;;32.23;29.33;;;18.50;96.50;;;;;;5008247;28;20417;-77
2022/07/21 03:03:43;;;;;;;30.58;27.88;;;18.40;96.50;;;;;;5009542;28;20424;-77
2022/07/21 03:06:10;;;;;;;28.17;25.80;;;18.40;96.60;;;;;;5009813;28;20425;-76
2022/07/21 03:08:37;;;;;;;28.70;26.15;;;18.40;96.60;;;;;;5009704;28;20864;-77
2022/07/21 03:11:03;;;;;;;30.48;27.65;;;18.40;97.00;;;;;;5008867;28;20421;-78
2022/07/21 03:13:30;;;;;;;27.35;25.15;;;18.40;96.70;;;;;;5009890;28;20424;-78
2022/07/21 03:15:57;;;;;;;34.35;31.13;;;18.40;96.80;;;;;;5009885;28;20419;-78
2022/07/21 03:18:24;;;;;;;31.05;28.25;;;18.40;97.00;;;;;;5010786;28;20421;-77
2022/07/21 03:20:52;;;;;;;30.35;27.75;;;18.40;97.10;;;;;;5009696;28;20425;-77
2022/07/21 03:23:19;;;;;;;30.98;28.38;;;18.40;97.10;;;;;;5010537;28;21116;-77
2022/07/21 03:25:46;;;;;;;27.60;25.23;;;18.40;97.10;;;;;;5009811;28;20420;-77
2022/07/21 03:28:13;;;;;;;27.52;25.15;;;18.40;97.10;;;;;;5010182;28;20416;-77
2022/07/21 03:30:39;;;;;;;28.10;25.60;;;18.40;97.10;;;;;;5009759;28;20432;-76
2022/07/21 03:33:07;;;;;;;30.30;27.50;;;18.40;97.10;;;;;;5010949;28;20416;-79
2022/07/21 03:35:35;;;;;;;26.80;24.60;;;18.40;97.10;;;;;;5012873;28;20428;-78
2022/07/21 03:38:06;;;;;;;27.37;25.00;;;18.40;97.10;;;;;;5016585;28;20667;-79
2022/07/21 03:40:35;;;;;;;25.60;23.45;;;18.40;97.00;;;;;;5015363;28;20507;-80
2022/07/21 03:43:03;;;;;;;29.38;26.77;;;18.40;96.90;;;;;;5016042;28;20779;-78
2022/07/21 03:45:32;;;;;;;25.20;23.10;;;18.40;97.10;;;;;;5011547;28;20420;-76
2022/07/21 03:47:59;;;;;;;25.13;23.02;;;18.40;96.90;;;;;;5011820;28;20444;-75
2022/07/21 03:50:27;;;;;;;28.90;26.40;;;18.30;96.70;;;;;;5011107;28;20440;-77
2022/07/21 03:52:54;;;;;;;27.75;25.45;;;18.30;96.80;;;;;;5011489;28;20424;-77
2022/07/21 03:55:22;;;;;;;26.50;24.20;;;18.30;96.80;;;;;;5011799;28;20483;-76
2022/07/21 03:57:51;;;;;;;27.05;24.75;;;18.30;96.80;;;;;;5012026;28;20436;-77
2022/07/21 04:00:19;;;;;;;27.85;25.55;;;18.30;96.90;;;;;;5011940;28;20427;-77
2022/07/21 04:02:47;;;;;;;26.30;24.00;;;18.30;96.90;;;;;;5012068;28;20436;-78
2022/07/21 04:05:15;;;;;;;24.58;22.48;;;18.30;96.90;;;;;;5011658;28;20420;-76
2022/07/21 04:07:44;;;;;;;23.60;21.80;;;18.30;96.80;;;;;;5012038;28;20433;-77
2022/07/21 04:10:13;;;;;;;25.80;23.40;;;18.20;96.70;;;;;;5010492;28;20428;-77
2022/07/21 04:12:42;;;;;;;22.33;20.52;;;18.20;96.80;;;;;;5010139;28;20420;-76
2022/07/21 04:15:10;;;;;;;23.42;21.35;;;18.20;96.70;;;;;;5010296;28;20417;-77
2022/07/21 04:17:38;;;;;;;20.98;19.38;;;18.20;96.70;;;;;;5011101;28;20463;-76
2022/07/21 04:20:07;;;;;;;22.73;20.65;;;18.20;96.70;;;;;;5010256;28;20421;-76
2022/07/21 04:22:34;;;;;;;21.42;19.52;;;18.20;96.80;;;;;;5010568;28;20427;-78
2022/07/21 04:25:00;;;;;;;20.75;19.05;;;18.20;96.80;;;;;;5009683;28;20455;-79
2022/07/21 04:27:27;;;;;;;18.93;17.43;;;18.20;96.80;;;;;;5010694;28;20583;-76
2022/07/21 04:29:55;;;;;;;16.70;15.40;;;18.30;96.70;;;;;;5010375;28;20539;-78
2022/07/21 04:32:22;;;;;;;15.13;14.02;;;18.30;96.30;;;;;;5010698;28;20443;-77
2022/07/21 04:34:49;;;;;;;16.75;15.43;;;18.30;96.10;;;;;;5010591;28;20444;-76
2022/07/21 04:37:16;;;;;;;14.90;13.70;;;18.20;96.10;;;;;;5010158;28;20416;-77
2022/07/21 04:39:43;;;;;;;13.88;12.77;;;18.30;95.90;;;;;;5010595;28;20417;-76
2022/07/21 04:42:10;;;;;;;13.50;12.30;;;18.30;95.70;;;;;;5011419;28;20451;-77
2022/07/21 04:44:36;;;;;;;12.90;11.80;;;18.30;95.40;;;;;;5011861;28;20420;-76
2022/07/21 04:47:05;;;;;;;12.52;11.60;;;18.30;95.00;;;;;;5010583;28;20424;-79
2022/07/21 04:49:32;;;;;;;13.90;12.90;;;18.20;95.00;;;;;;5010301;28;20522;-76
2022/07/21 04:51:58;;;;;;;12.20;11.30;;;18.20;95.80;;;;;;5009691;28;20424;-76
2022/07/21 04:54:25;;;;;;;11.68;10.77;;;18.30;95.40;;;;;;5011075;28;20937;-77
2022/07/21 04:56:52;;;;;;;12.48;11.57;;;18.30;95.00;;;;;;5010100;28;20914;-76
2022/07/21 04:59:19;;;;;;;13.07;12.07;;;18.30;94.90;;;;;;5011284;28;20429;-76
2022/07/21 05:01:45;;;;;;;12.90;11.80;;;18.30;95.10;;;;;;5010423;28;20424;-77
2022/07/21 05:04:14;;;;;;;13.63;12.52;;;18.20;95.20;;;;;;5011036;28;20420;-79
2022/07/21 05:06:40;;;;;;;13.40;12.50;;;18.30;95.30;;;;;;5010586;28;20421;-76
2022/07/21 05:09:07;;;;;;;13.35;12.35;;;18.40;95.90;;;;;;5011370;28;20512;-77
2022/07/21 05:11:34;;;;;;;12.60;11.60;;;18.40;95.50;;;;;;5009973;28;20526;-76
2022/07/21 05:14:01;;;;;;;13.10;12.00;;;18.40;95.20;;;;;;5010015;28;20428;-76
2022/07/21 05:16:27;;;;;;;12.15;11.30;;;18.50;95.30;;;;;;5011355;28;20416;-76
2022/07/21 05:18:54;;;;;;;13.82;12.73;;;18.50;95.10;;;;;;5010900;28;20420;-77
2022/07/21 05:21:22;;;;;;;13.25;12.35;;;18.60;95.20;;;;;;5024505;28;20412;-77
2022/07/21 05:23:49;;;;;;;11.80;10.93;;;18.60;95.40;;;;;;5030016;28;20444;-79
2022/07/21 05:26:16;;;;;;;11.43;10.63;;;18.70;95.30;;;;;;5032844;28;20411;-77
2022/07/21 05:28:43;;;;;;;11.10;10.30;;;18.70;94.80;;;;;;5032879;28;20444;-79
2022/07/21 05:31:10;;;;;;;10.40;9.60;;;18.70;94.60;;;;;;5032664;28;20429;-79
2022/07/21 05:33:37;;;;;;;9.73;9.00;;;18.70;94.00;;;;;;5030496;28;20444;-79
2022/07/21 05:36:04;;;;;;;10.77;9.98;;;18.70;93.50;;;;;;5024946;28;20871;-79
2022/07/21 05:38:32;;;;;;;9.77;9.05;;;18.70;93.50;;;;;;5015331;28;20791;-78
2022/07/21 05:41:02;;;;;;;10.23;9.43;;;18.70;92.90;;;;;;5013491;28;20431;-77
2022/07/21 05:43:29;;;;;;;10.88;9.98;;;18.60;92.60;;;;;;5018878;28;20839;-78
2022/07/21 05:45:56;;;;;;;10.95;9.90;;;18.60;92.90;;;;;;5025278;28;20431;-79
2022/07/21 05:48:23;;;;;;;10.95;9.95;;;18.60;92.90;;;;;;5023346;28;20413;-77
2022/07/21 05:50:50;;;;;;;11.77;10.77;;;18.50;92.90;;;;;;5014417;28;20483;-77
2022/07/21 05:53:17;;;;;;;11.25;10.35;;;18.50;93.10;;;;;;5016293;28;20420;-78
2022/07/21 05:55:45;;;;;;;11.70;10.90;;;18.50;93.20;;;;;;5015644;28;20910;-77
2022/07/21 05:58:11;;;;;;;10.82;10.02;;;18.50;93.30;;;;;;5015123;28;20447;-78
2022/07/21 06:00:38;;;;;;;10.80;10.00;;;18.50;93.60;;;;;;5015724;28;20712;-79
2022/07/21 06:03:05;;;;;;;10.30;9.40;;;18.50;93.40;;;;;;5017916;28;20424;-79
2022/07/21 06:05:32;;;;;;;10.02;9.20;;;18.50;93.30;;;;;;5017179;28;20424;-77
2022/07/21 06:08:00;;;;;;;10.57;9.68;;;18.50;93.50;;;;;;5014378;28;20425;-77
2022/07/21 06:10:27;;;;;;;9.18;8.43;;;18.50;93.70;;;;;;5013709;28;20432;-79
2022/07/21 06:12:55;;;;;;;8.05;7.45;;;18.50;93.40;;;;;;5014968;28;20431;-77
2022/07/21 06:15:22;;;;;;;6.20;5.70;;;18.40;92.80;;;;;;5014535;28;20417;-77
2022/07/21 06:17:49;;;;;;;7.05;6.47;;;18.40;92.10;;;;;;5015080;28;20421;-78
2022/07/21 06:20:16;;;;;;;7.00;6.40;;;18.40;92.80;;;;;;5009064;28;20438;-77
2022/07/21 06:22:42;;;;;;;6.65;6.10;;;18.40;92.40;;;;;;4994341;28;20436;-77
2022/07/21 06:25:10;;;;;;;5.30;4.90;;;18.30;92.80;;;;;;4992932;28;20422;-77
2022/07/21 06:27:36;;;;;;;5.60;5.10;;;18.40;92.40;;;;;;4994028;28;20427;-77
2022/07/21 06:30:06;;;;;;;4.22;3.90;;;18.40;92.80;;;;;;4994074;28;20434;-77
2022/07/21 06:32:33;;;;;;;2.75;2.38;;;18.40;92.80;;;;;;4993870;28;20893;-76
2022/07/21 06:35:00;;;;;;;2.20;2.00;;;18.40;91.20;;;;;;4993709;28;20429;-78
2022/07/21 06:37:27;;;;;;;2.45;2.25;;;18.40;91.10;;;;;;4994657;28;20434;-78
2022/07/21 06:39:53;;;;;;;2.20;2.10;;;18.40;91.20;;;;;;4993769;28;20426;-77
2022/07/21 06:42:20;;;;;;;2.40;2.20;;;18.30;91.10;;;;;;4993703;28;20423;-77
2022/07/21 06:44:47;;;;;;;2.70;2.20;;;18.30;91.10;;;;;;4993658;28;20422;-77
2022/07/21 06:47:15;;;;;;;2.67;2.10;;;18.40;91.10;;;;;;4993594;28;20920;-78
2022/07/21 06:49:42;;;;;;;2.72;2.33;;;18.40;91.30;;;;;;4994930;28;20449;-77
2022/07/21 06:52:08;;;;;;;3.13;2.60;;;18.50;91.20;;;;;;4993137;28;20509;-77
2022/07/21 06:54:35;;;;;;;2.70;2.50;;;18.60;91.30;;;;;;4992556;28;20418;-76
2022/07/21 06:57:02;;;;;;;3.42;3.20;;;18.70;91.30;;;;;;4991748;28;20430;-77
2022/07/21 06:59:29;;;;;;;3.63;2.92;;;18.90;91.10;;;;;;4992516;28;20426;-75
2022/07/21 07:01:57;;;;;;;3.70;3.40;;;18.90;90.70;;;;;;4991285;28;20410;-75
2022/07/21 07:04:25;;;;;;;3.60;3.30;;;19.00;90.50;;;;;;4991835;28;20501;-77
2022/07/21 07:06:53;;;;;;;4.25;3.95;;;19.20;89.90;;;;;;4992044;28;20426;-78
2022/07/21 07:09:20;;;;;;;4.23;3.93;;;19.30;89.40;;;;;;4992754;28;20781;-77
2022/07/21 07:11:47;;;;;;;4.00;3.60;;;19.40;89.10;;;;;;4990685;28;20442;-76
2022/07/21 07:14:14;;;;;;;4.20;3.90;;;19.40;87.90;;;;;;5028464;23;20439;-77
2022/07/21 07:16:41;;;;;;;4.20;3.90;;;19.60;89.50;;;;;;5018633;28;20415;-77
2022/07/21 07:19:07;;;;;;;3.90;3.60;;;19.80;87.80;;;;;;5027072;28;20419;-77
2022/07/21 07:21:36;;;;;;;4.20;3.90;;;19.90;87.00;;;;;;5012355;28;20417;-77
2022/07/21 07:24:03;;;;;;;4.22;3.83;;;20.00;84.80;;;;;;5007396;28;20416;-77
2022/07/21 07:26:29;;;;;;;4.20;3.80;;;20.00;85.80;;;;;;5008119;28;20428;-78
2022/07/21 07:28:56;;;;;;;4.40;4.00;;;20.00;86.00;;;;;;5008596;28;20427;-78
2022/07/21 07:31:23;;;;;;;4.40;4.10;;;20.00;85.60;;;;;;5006670;28;20432;-77
2022/07/21 07:33:50;;;;;;;5.20;4.33;;;20.10;86.70;;;;;;5007531;28;20507;-78
2022/07/21 07:36:16;;;;;;;4.90;4.60;;;20.20;85.00;;;;;;5007755;28;20439;-78
2022/07/21 07:38:45;;;;;;;4.40;4.10;;;20.40;85.10;;;;;;5007369;28;20450;-77
2022/07/21 07:41:11;;;;;;;5.30;4.50;;;20.50;82.50;;;;;;5006760;28;20887;-77
2022/07/21 07:43:38;;;;;;;4.50;4.20;;;20.70;82.30;;;;;;5007076;28;20423;-77
2022/07/21 07:46:06;;;;;;;5.00;4.70;;;20.90;84.20;;;;;;5006876;28;20567;-77
2022/07/21 07:48:34;;;;;;;5.38;4.65;;;21.10;81.70;;;;;;5006855;28;20459;-77
2022/07/21 07:51:01;;;;;;;4.90;4.60;;;21.30;81.80;;;;;;5006565;28;20447;-78
2022/07/21 07:53:28;;;;;;;4.93;4.53;;;21.50;79.80;;;;;;5007066;28;20425;-77
2022/07/21 07:55:56;;;;;;;4.70;4.40;;;21.70;77.80;;;;;;5006705;28;20890;-78
2022/07/21 07:58:23;;;;;;;4.90;4.50;;;21.70;76.30;;;;;;5007001;28;20898;-78
2022/07/21 08:00:50;;;;;;;5.00;4.60;;;21.80;75.80;;;;;;5006472;28;20906;-77
2022/07/21 08:03:17;;;;;;;4.30;4.00;;;22.00;77.10;;;;;;5007098;28;20443;-77
2022/07/21 08:05:44;;;;;;;4.10;3.80;;;22.30;76.00;;;;;;5006359;28;20433;-77
2022/07/21 08:08:11;;;;;;;4.30;4.00;;;22.60;76.00;;;;;;5006885;28;20424;-78
2022/07/21 08:10:38;;;;;;;4.33;4.00;;;22.80;74.10;;;;;;5006200;28;20435;-77
2022/07/21 08:13:08;;;;;;;4.00;3.70;;;22.90;72.50;;;;;;5006408;28;20416;-78
2022/07/21 08:15:35;;;;;;;4.13;3.83;;;23.10;73.00;;;;;;5008647;28;20467;-78
2022/07/21 08:18:01;;;;;;;7.80;4.90;;;23.20;70.10;;;;;;5007212;28;20775;-78
2022/07/21 08:20:28;;;;;;;4.80;4.40;;;23.00;70.30;;;;;;5006358;28;20420;-78
2022/07/21 08:22:55;;;;;;;5.93;5.03;;;22.80;71.90;;;;;;5007006;28;20417;-78
2022/07/21 08:25:22;;;;;;;4.70;4.30;;;22.80;72.00;;;;;;5006352;28;20442;-77
2022/07/21 08:27:49;;;;;;;5.10;4.70;;;22.70;72.20;;;;;;5006743;28;20412;-78
2022/07/21 08:30:17;;;;;;;7.10;5.00;;;22.70;73.40;;;;;;5006440;28;20439;-77
2022/07/21 08:32:44;;;;;;;5.88;5.28;;;22.80;71.60;;;;;;5006120;28;20791;-77
2022/07/21 08:35:11;;;;;;;4.82;4.43;;;22.70;70.30;;;;;;5006733;28;20882;-77
2022/07/21 08:37:39;;;;;;;5.30;4.80;;;22.60;71.60;;;;;;5006871;28;20847;-77
2022/07/21 08:40:08;;;;;;;5.20;4.75;;;22.60;71.80;;;;;;5005803;28;20420;-78
2022/07/21 08:42:35;;;;;;;4.55;4.25;;;22.60;72.60;;;;;;5006551;28;20412;-76
2022/07/21 08:45:02;;;;;;;4.78;4.35;;;22.50;69.80;;;;;;5006418;28;20425;-77
2022/07/21 08:47:30;;;;;;;4.57;4.28;;;22.40;69.90;;;;;;5006559;28;20412;-77
2022/07/21 08:49:58;;;;;;;5.10;4.70;;;22.60;70.40;;;;;;5006073;28;20443;-77
2022/07/21 08:52:25;;;;;;;5.13;4.72;;;22.80;69.20;;;;;;5006429;28;20437;-77
2022/07/21 08:54:52;;;;;;;5.10;4.60;;;22.90;66.50;;;;;;5006155;28;20772;-77
2022/07/21 08:57:18;;;;;;;4.60;4.30;;;22.90;66.40;;;;;;5006434;28;20425;-77
2022/07/21 08:59:45;;;;;;;5.30;4.90;;;22.70;66.30;;;;;;5007821;28;20421;-77
2022/07/21 09:02:27;;;;;;;5.73;5.23;;;22.60;68.10;;;;;;5009921;28;20574;-77
2022/07/21 09:04:56;;;;;;;5.35;4.95;;;22.50;67.80;;;;;;5010183;28;21031;-77
2022/07/21 09:07:23;;;;;;;5.20;4.80;;;22.50;65.50;;;;;;5010120;28;20416;-77
2022/07/21 09:09:56;;;;;;;5.90;5.40;;;22.40;65.00;;;;;;5010103;28;20814;-75
2022/07/21 09:12:24;;;;;;;5.50;5.05;;;22.60;64.50;;;;;;5008996;28;20436;-75
2022/07/21 09:14:51;;;;;;;5.17;4.67;;;22.90;63.40;;;;;;5009997;28;20439;-76
2022/07/21 09:17:19;;;;;;;5.20;4.90;;;23.30;62.20;;;;;;5010314;28;20416;-77
2022/07/21 09:19:48;;;;;;;4.97;4.57;;;23.60;61.50;;;;;;5010018;28;20428;-77
2022/07/21 09:22:18;;;;;;;5.43;5.03;;;23.70;60.50;;;;;;5009773;28;20409;-77
2022/07/21 09:24:50;;;;;;;4.88;4.40;;;23.50;59.70;;;;;;5009689;28;20421;-77
2022/07/21 09:27:18;;;;;;;5.20;4.80;;;23.40;59.50;;;;;;5009480;28;20519;-77
2022/07/21 09:29:47;;;;;;;5.50;4.20;;;23.40;59.10;;;;;;5009849;28;20444;-78
2022/07/21 09:32:26;;;;;;;5.07;4.40;;;23.50;58.50;;;;;;5008864;28;20440;-77
2022/07/21 09:34:55;;;;;;;3.95;3.65;;;23.50;56.50;;;;;;5009399;28;20497;-77
2022/07/21 09:37:24;;;;;;;4.50;4.10;;;23.30;58.00;;;;;;5009453;28;20413;-77
2022/07/21 09:39:52;;;;;;;4.70;4.28;;;23.30;59.30;;;;;;5008929;28;20473;-77
2022/07/21 09:42:22;;;;;;;4.90;4.50;;;23.30;58.60;;;;;;5008772;28;20513;-76
2022/07/21 09:44:51;;;;;;;4.68;4.28;;;23.30;59.40;;;;;;5009038;28;20416;-77
2022/07/21 09:47:19;;;;;;;4.50;4.20;;;23.30;59.10;;;;;;5009362;28;20424;-75
2022/07/21 09:49:46;;;;;;;4.80;4.40;;;23.40;59.00;;;;;;5008918;28;20905;-75
2022/07/21 09:52:29;;;;;;;4.50;4.20;;;23.40;58.50;;;;;;5008480;28;20436;-76
2022/07/21 09:54:58;;;;;;;4.72;4.32;;;23.40;59.00;;;;;;5009160;28;20420;-76
2022/07/21 09:57:26;;;;;;;9.15;4.63;;;23.50;58.10;;;;;;5008883;28;20486;-77
2022/07/21 09:59:52;;;;;;;4.85;4.45;;;23.70;57.70;;;;;;5008475;28;20427;-76
2022/07/21 10:02:22;;;;;;;4.55;4.15;;;23.80;56.70;;;;;;5008859;28;20442;-76
2022/07/21 10:04:59;;;;;;;5.45;4.80;;;23.70;56.70;;;;;;5008873;28;20774;-78
2022/07/21 10:07:28;;;;;;;4.57;4.18;;;23.60;58.10;;;;;;5008612;28;20421;-76
2022/07/21 10:09:56;;;;;;;4.78;4.38;;;23.70;57.90;;;;;;5008089;28;20448;-77
2022/07/21 10:12:24;;;;;;;4.90;4.50;;;23.80;58.00;;;;;;5008027;28;20451;-76
2022/07/21 10:14:51;;;;;;;4.80;4.40;;;23.80;57.50;;;;;;5008025;28;20424;-76
2022/07/21 10:17:19;;;;;;;4.85;4.45;;;23.80;57.20;;;;;;5008878;28;20438;-77
2022/07/21 10:19:54;;;;;;;4.50;4.10;;;23.80;58.10;;;;;;5008288;28;20423;-77
2022/07/21 10:22:31;;;;;;;4.88;4.47;;;23.80;57.70;;;;;;5008317;28;20420;-77
2022/07/21 10:24:59;;;;;;;4.13;3.83;;;23.70;56.50;;;;;;5008510;28;20417;-78
2022/07/21 10:27:26;;;;;;;4.35;3.95;;;23.60;57.10;;;;;;5008113;28;20819;-77
2022/07/21 10:29:56;;;;;;;4.15;3.85;;;23.40;56.70;;;;;;5007850;28;20416;-79
2022/07/21 10:32:26;;;;;;;4.80;3.67;;;23.40;56.70;;;;;;5007799;28;20433;-77
2022/07/21 10:34:53;;;;;;;3.90;3.50;;;23.40;55.70;;;;;;5008374;28;20609;-76
2022/07/21 10:37:49;;;;;;;3.97;3.60;;;23.40;55.30;;;;;;5008230;28;20578;-77
2022/07/21 10:40:43;;;;;;;5.37;3.90;;;23.30;55.60;;;;;;5007121;28;20416;-76
2022/07/21 10:43:39;;;;;;;3.92;3.63;;;23.20;56.30;;;;;;5008218;28;20413;-75
2022/07/21 10:46:35;;;;;;;4.40;4.00;;;22.90;56.70;;;;;;5007814;28;20427;-75
2022/07/21 10:49:05;;;;;;;5.13;4.30;;;22.80;57.90;;;;;;5008279;28;20444;-75
2022/07/21 10:51:34;;;;;;;4.50;4.10;;;22.70;57.80;;;;;;5007284;28;20997;-75
2022/07/21 10:54:19;;;;;;;4.10;3.80;;;22.80;59.80;;;;;;5007684;28;21180;-76
2022/07/21 10:56:46;;;;;;;4.97;4.35;;;22.70;60.40;;;;;;5007650;28;20898;-78
2022/07/21 10:59:12;;;;;;;4.90;4.50;;;22.70;61.60;;;;;;5008118;28;20412;-77
2022/07/21 11:01:39;;;;;;;5.60;5.00;;;22.40;65.10;;;;;;5006971;28;20427;-77
2022/07/21 11:04:13;;;;;;;5.68;5.18;;;22.10;67.10;;;;;;5007419;28;20925;-77
2022/07/21 11:06:41;;;;;;;5.30;4.80;;;21.90;69.00;;;;;;5007537;28;20879;-76
2022/07/21 11:09:14;;;;;;;5.73;5.33;;;21.70;68.90;;;;;;5007718;28;20434;-78
2022/07/21 11:11:59;;;;;;;6.30;5.70;;;21.70;70.40;;;;;;5006806;28;20608;-77
2022/07/21 11:14:39;;;;;;;6.20;5.70;;;21.60;72.00;;;;;;5007274;28;20791;-78
2022/07/21 11:17:06;;;;;;;7.07;6.47;;;21.60;72.50;;;;;;5007398;28;20437;-78
2022/07/21 11:19:40;;;;;;;7.93;6.60;;;21.60;74.40;;;;;;5007807;28;20416;-78
2022/07/21 11:22:12;;;;;;;7.10;6.55;;;21.40;75.30;;;;;;5006269;28;20420;-78
2022/07/21 11:24:41;;;;;;;7.50;6.90;;;21.30;75.40;;;;;;5007392;28;20527;-77
2022/07/21 11:27:11;;;;;;;7.40;6.80;;;21.20;77.00;;;;;;5007517;28;20427;-79
2022/07/21 11:29:39;;;;;;;9.07;8.27;;;21.00;78.70;;;;;;5008610;28;20585;-77
2022/07/21 11:32:07;;;;;;;8.75;7.95;;;20.90;80.90;;;;;;5007156;28;20428;-79
2022/07/21 11:34:43;;;;;;;9.00;8.30;;;20.70;80.60;;;;;;5007254;28;20894;-78
2022/07/21 11:37:12;;;;;;;11.63;8.60;;;20.60;83.50;;;;;;5007365;28;20423;-79
2022/07/21 11:39:39;;;;;;;9.40;8.50;;;20.50;82.40;;;;;;5007326;28;20517;-78
2022/07/21 11:42:07;;;;;;;10.60;9.70;;;20.40;83.10;;;;;;5006444;28;20451;-78
2022/07/21 11:44:36;;;;;;;10.88;9.88;;;20.10;84.50;;;;;;5007210;28;20743;-77
2022/07/21 11:47:05;;;;;;;12.65;11.38;;;19.80;86.70;;;;;;5007101;28;20429;-77
2022/07/21 11:49:32;;;;;;;13.25;12.13;;;19.50;89.00;;;;;;5007432;28;20420;-76
2022/07/21 11:52:00;;;;;;;16.13;14.63;;;19.30;90.70;;;;;;5006781;28;20433;-76
2022/07/21 11:54:31;;;;;;;17.30;15.70;;;19.10;91.50;;;;;;5007250;28;20440;-77
2022/07/21 11:56:59;;;;;;;15.30;14.00;;;19.00;92.50;;;;;;5006754;28;20425;-77
2022/07/21 11:59:27;;;;;;;15.83;14.53;;;19.00;92.20;;;;;;5007390;28;20449;-77
2022/07/21 12:02:07;;;;;;;14.50;13.25;;;18.80;92.50;;;;;;5006778;28;20748;-77
2022/07/21 12:04:37;;;;;;;16.33;14.93;;;18.60;92.70;;;;;;5007422;28;20483;-77
2022/07/21 12:07:06;;;;;;;20.13;18.38;;;18.60;93.10;;;;;;5007469;28;20416;-77
2022/07/21 12:09:34;;;;;;;19.15;17.55;;;18.50;93.80;;;;;;5007241;28;20425;-77
2022/07/21 12:12:01;;;;;;;18.23;16.63;;;18.60;94.10;;;;;;5006270;28;20436;-77
2022/07/21 12:14:46;;;;;;;21.37;19.50;;;18.50;94.20;;;;;;5006929;28;20447;-77
2022/07/21 12:17:16;;;;;;;20.42;18.63;;;18.50;94.50;;;;;;5006459;28;20420;-77
2022/07/21 12:19:43;;;;;;;20.60;18.98;;;18.50;94.70;;;;;;5006974;28;20483;-77
2022/07/21 12:22:10;;;;;;;18.02;16.42;;;18.50;94.70;;;;;;5006225;28;20417;-77
2022/07/21 12:24:58;;;;;;;17.15;15.80;;;18.50;94.80;;;;;;5006897;28;20519;-77
2022/07/21 12:27:25;;;;;;;18.40;16.95;;;18.40;94.60;;;;;;5006769;28;20435;-77
2022/07/21 12:29:52;;;;;;;17.85;16.45;;;18.40;94.70;;;;;;5006489;28;20421;-77
2022/07/21 12:32:44;;;;;;;18.90;17.33;;;18.40;94.50;;;;;;5006547;28;20442;-77
2022/07/21 12:35:22;;;;;;;20.48;18.58;;;18.40;94.60;;;;;;5010029;28;20435;-77
2022/07/21 12:37:57;;;;;;;20.33;18.40;;;18.40;94.80;;;;;;5010553;28;20924;-78
2022/07/21 12:40:25;;;;;;;20.65;18.85;;;18.30;94.70;;;;;;5010151;28;20432;-77
2022/07/21 12:43:03;;;;;;;22.05;20.15;;;18.30;94.90;;;;;;5010947;28;20444;-78
2022/07/21 12:45:30;;;;;;;20.27;18.58;;;18.40;95.20;;;;;;5010915;28;20447;-77
2022/07/21 12:48:09;;;;;;;18.85;17.27;;;18.40;95.20;;;;;;5010918;28;20878;-78